This is the latest recevied weather packets stored in our database for station/object HS3UAA-1. If no packets are shown the sender has not sent any weather packets the latest 10 day(s).
| Time | Temp. | Humidity | Pressure | Rain* | Wind** | Luminosity | Snow |
|---|---|---|---|---|---|---|---|
| 1787606832 | 33.89° C | 46% | 994 hPa | - | - | 0 W/m² | - |
| 1787606510 | 33.89° C | 46% | 994 hPa | - | - | 0 W/m² | - |
| 1787606188 | 32.78° C | 49% | 994 hPa | - | - | 0 W/m² | - |
| 1787605866 | 33.33° C | 47% | 994 hPa | - | - | 0 W/m² | - |
| 1787605544 | 32.78° C | 48% | 994 hPa | - | - | 0 W/m² | - |
| 1787605222 | 33.89° C | 46% | 994 hPa | - | - | 0 W/m² | - |
| 1787604900 | 32.78° C | 48% | 994 hPa | - | - | 0 W/m² | - |
| 1787604578 | 33.33° C | 48% | 994 hPa | - | - | 0 W/m² | - |
| 1787604256 | 32.78° C | 48% | 994 hPa | - | - | 0 W/m² | - |
| 1787603934 | 33.89° C | 46% | 994 hPa | - | - | 0 W/m² | - |
| 1787603612 | 33.89° C | 46% | 994 hPa | - | - | 0 W/m² | - |
| 1787603290 | 33.33° C | 48% | 994 hPa | - | - | 0 W/m² | - |
| 1787602968 | 33.33° C | 48% | 994 hPa | - | - | 0 W/m² | - |
| 1787602645 | 32.78° C | 48% | 994 hPa | - | - | 0 W/m² | - |
| 1787602324 | 34.44° C | 45% | 994 hPa | - | - | 0 W/m² | - |
| 1787602001 | 33.33° C | 48% | 995 hPa | - | - | 0 W/m² | - |
| 1787601679 | 33.33° C | 48% | 994 hPa | - | - | 0 W/m² | - |
| 1787601357 | 33.33° C | 47% | 995 hPa | - | - | 0 W/m² | - |
| 1787601035 | 33.33° C | 47% | 995 hPa | - | - | 0 W/m² | - |
| 1787600713 | 32.78° C | 48% | 995 hPa | - | - | 0 W/m² | - |
| 1787600391 | 32.78° C | 48% | 995 hPa | - | - | 0 W/m² | - |
| 1787600069 | 33.89° C | 46% | 995 hPa | - | - | 0 W/m² | - |
| 1787599747 | 33.89° C | 46% | 995 hPa | - | - | 0 W/m² | - |
| 1787599425 | 33.33° C | 47% | 995 hPa | - | - | 0 W/m² | - |
| 1787599103 | 32.78° C | 48% | 995 hPa | - | - | 0 W/m² | - |
* Rain since midnight (hover to see other rain measurements)
** Current wind speed in m/s (hover to see current wind gust speed)